Seattle, WA

1:29 AM PST on November 27, 2014 (GMT -0800)
hillman city | Change Station
CLOSE
Current Station
Personal Weather Station
Location: Seattle, WA
Elevation: 213 ft
Nearby Weather Stations
Active Advisory: Flood Warning, Areal Flood Watch Active Notice: Record Report

Elev 213 ft 47.55 °N, 122.28 °W | Updated 18 minutes ago

Overcast
Overcast
58.5 °F
Feels Like 58.5 °F
N
3.4
Wind Variable Wind from SSE
Gusts 3.4 mph

Today
High -- | Low -- °F
--% Chance of Precip.
Yesterday
High -- | Low -- °F
Precip. -- in
7:31 AM 4:22 PM
Waxing Crescent, 27% visible
Pressure 29.86 in
Visibility 10.0 miles
Clouds Overcast 5000 ft
Dew Point 50 °F
Humidity 72%
Rainfall 0.00 in
Snow Depth Not available.
UV 0 out of 12
Pollen .10 out of 12
Air Quality Not available.
Flu Activity Not available.
METAR KBFI 270853Z 18007G18KT 10SM OVC050 17/07 A2986 RMK AO2 SLP112 T01670067 58003

More Conditions Fewer Conditions

Pressure 29.86 in
Visibility 10.0 miles
Clouds Overcast 5000 ft
Dew Point 50 °F
Humidity 72%
Rainfall 0.00 in
Snow Depth Not available.
UV 0 out of 12
Pollen .10 out of 12
Air Quality Not available.
Flu Activity Not available.
METAR KBFI 270853Z 18007G18KT 10SM OVC050 17/07 A2986 RMK AO2 SLP112 T01670067 58003

More Conditions Fewer Conditions

10-Day Weather Forecast

Almanac

Astronomy

Nov. 27, 2014 Rise Set
Actual Time
Civil Twilight
Nautical Twilight
Astronomical Twilight
Moon
Length of Visible Light
Length of Day
Tomorrow will be .
, % of the Moon is Illuminated

Today's Extremes

State Highs State Lows

Community

WunderPhotos

Upload Photos

1,773,965 photos uploaded!

WunderBlogs® & News

Nearby

Air Quality

  Air Quality AQ Index Pollutant
Not available.

Snow Depth

Station Depth Elevation

Earthquake Activity

City Distance Mag. Time & Date
Minimum magnitude displayed is 2.5.

Coastal Water Temperatures

Place Temperature

Nearby Weather Stations